Time;durP1;ratioP1;P1;durP2;ratioP2;P2;SDS_P1;SDS_P2;PMS_P1;PMS_P2;Temp;Humidity;BMP_temperature;BMP_pressure;BME280_temperature;BME280_humidity;BME280_pressure;Samples;Min_cycle;Max_cycle;Signal;HPM_P1;HPM_P2
2023/03/11 00:01:28;;;;;;;2.15;1.23;;;19.40;60.50;;;;;;4793627;29;88093;-81
2023/03/11 00:03:53;;;;;;;3.03;1.30;;;19.40;60.50;;;;;;4792560;29;87356;-80
2023/03/11 00:06:19;;;;;;;2.08;1.17;;;19.30;60.40;;;;;;4792865;29;88657;-80
2023/03/11 00:08:45;;;;;;;1.80;1.15;;;19.30;60.40;;;;;;4791704;29;87421;-81
2023/03/11 00:11:11;;;;;;;3.30;1.25;;;19.30;60.40;;;;;;4794928;29;86984;-81
2023/03/11 00:13:38;;;;;;;1.60;1.00;;;19.30;60.50;;;;;;4802410;29;95363;-80
2023/03/11 00:16:04;;;;;;;2.47;1.30;;;19.30;60.60;;;;;;4801662;29;87013;-81
2023/03/11 00:18:30;;;;;;;1.73;1.10;;;19.20;60.50;;;;;;4800539;29;87527;-81
2023/03/11 00:20:57;;;;;;;1.23;1.05;;;19.30;60.40;;;;;;4801755;29;88296;-80
2023/03/11 00:23:24;;;;;;;1.85;1.42;;;19.20;60.40;;;;;;4801612;29;87720;-81
2023/03/11 00:25:50;;;;;;;1.95;1.10;;;19.20;60.20;;;;;;4802310;29;87906;-80
2023/03/11 00:28:15;;;;;;;1.38;1.08;;;19.20;60.30;;;;;;4802206;29;87427;-81
2023/03/11 00:30:42;;;;;;;1.40;0.90;;;19.20;60.40;;;;;;4800282;29;90430;-81
2023/03/11 00:33:09;;;;;;;0.88;0.80;;;19.20;60.40;;;;;;4801849;29;89810;-81
2023/03/11 00:35:35;;;;;;;2.35;1.10;;;19.20;60.40;;;;;;4800966;29;87215;-81
2023/03/11 00:38:04;;;;;;;1.65;0.90;;;19.10;60.40;;;;;;4802815;29;87378;-80
2023/03/11 00:40:32;;;;;;;2.10;1.00;;;19.10;60.30;;;;;;4801114;29;88609;-81
2023/03/11 00:42:58;;;;;;;2.03;1.10;;;19.10;60.30;;;;;;4800583;29;87940;-81
2023/03/11 00:45:24;;;;;;;1.83;1.10;;;19.10;60.30;;;;;;4802004;29;87432;-81
2023/03/11 00:47:50;;;;;;;1.73;0.90;;;19.10;60.40;;;;;;4801929;29;87302;-80
2023/03/11 00:50:20;;;;;;;3.22;1.10;;;19.00;60.30;;;;;;4801360;29;87461;-81
2023/03/11 00:52:47;;;;;;;1.52;1.30;;;19.10;60.50;;;;;;4802783;29;88704;-81
2023/03/11 00:55:15;;;;;;;1.38;1.10;;;19.00;60.40;;;;;;4800532;29;88047;-80
2023/03/11 00:57:42;;;;;;;1.73;1.00;;;19.00;60.40;;;;;;4801805;29;87535;-80
2023/03/11 01:00:12;;;;;;;1.38;1.10;;;19.00;60.50;;;;;;4801244;29;88070;-81
2023/03/11 01:02:38;;;;;;;2.10;1.25;;;19.00;60.40;;;;;;4801089;29;87846;-81
2023/03/11 01:05:05;;;;;;;1.85;1.20;;;19.00;60.40;;;;;;4801558;29;87119;-80
2023/03/11 01:07:32;;;;;;;1.35;1.17;;;19.00;60.40;;;;;;4800903;29;87581;-80
2023/03/11 01:09:58;;;;;;;0.90;0.85;;;19.00;60.40;;;;;;4801218;29;88623;-80
2023/03/11 01:12:24;;;;;;;1.75;1.00;;;19.00;60.70;;;;;;4800423;29;87861;-80
2023/03/11 01:14:49;;;;;;;1.70;1.35;;;19.00;61.40;;;;;;4800679;29;87931;-80
2023/03/11 01:17:15;;;;;;;1.88;1.25;;;18.90;60.50;;;;;;4800830;29;87442;-81
2023/03/11 01:19:41;;;;;;;2.00;0.90;;;18.90;60.60;;;;;;4799989;29;88418;-80
2023/03/11 01:22:07;;;;;;;1.45;0.80;;;18.90;60.50;;;;;;4783989;29;91529;-80
2023/03/11 01:24:32;;;;;;;1.63;1.13;;;18.90;60.40;;;;;;4801397;29;87084;-81
2023/03/11 01:26:58;;;;;;;2.25;1.30;;;18.90;60.60;;;;;;4800736;29;87768;-81
2023/03/11 01:29:24;;;;;;;2.20;1.30;;;18.90;60.40;;;;;;4799704;29;87488;-81
2023/03/11 01:31:49;;;;;;;1.95;1.17;;;18.90;60.40;;;;;;4801810;29;88348;-80
2023/03/11 01:34:15;;;;;;;1.63;1.20;;;18.90;60.50;;;;;;4800588;29;87383;-80
2023/03/11 01:36:41;;;;;;;1.05;0.77;;;18.90;60.50;;;;;;4799004;29;89894;-81
2023/03/11 01:39:07;;;;;;;1.52;0.98;;;18.80;60.50;;;;;;4801326;29;87730;-80
2023/03/11 01:41:33;;;;;;;1.75;1.15;;;18.80;60.20;;;;;;4798024;29;88276;-80
2023/03/11 01:43:58;;;;;;;1.80;1.02;;;18.80;60.40;;;;;;4801571;29;88569;-81
2023/03/11 01:46:50;;;;;;;1.73;0.90;;;18.80;60.40;;;;;;4802046;29;87376;-80
2023/03/11 01:49:16;;;;;;;1.20;0.90;;;18.80;60.50;;;;;;4706791;29;88572;-80
2023/03/11 01:51:44;;;;;;;1.55;1.08;;;18.80;60.50;;;;;;4708309;29;87919;-81
2023/03/11 01:54:17;;;;;;;1.27;1.00;;;18.80;60.50;;;;;;4707419;29;88511;-80
2023/03/11 01:56:44;;;;;;;1.55;1.30;;;18.70;60.40;;;;;;4707600;29;87748;-80
2023/03/11 01:59:13;;;;;;;1.60;1.08;;;18.70;60.20;;;;;;4708144;29;88677;-81
2023/03/11 02:02:03;;;;;;;1.45;1.20;;;18.70;60.50;;;;;;4708840;29;90453;-80
2023/03/11 02:04:31;;;;;;;1.38;1.00;;;18.70;60.40;;;;;;4707340;29;87688;-80
2023/03/11 02:06:57;;;;;;;1.47;1.00;;;18.70;60.40;;;;;;4707495;29;88395;-81
2023/03/11 02:09:25;;;;;;;1.40;0.93;;;18.70;60.50;;;;;;4707422;29;88720;-81
2023/03/11 02:11:52;;;;;;;2.40;0.93;;;18.70;60.50;;;;;;4698701;29;88486;-80
2023/03/11 02:14:18;;;;;;;1.77;1.05;;;18.70;60.20;;;;;;4699744;29;87213;-81
2023/03/11 02:16:44;;;;;;;1.88;1.02;;;18.60;60.20;;;;;;4699812;29;87376;-80
2023/03/11 02:19:35;;;;;;;1.23;0.80;;;18.60;60.40;;;;;;4698524;29;87934;-80
2023/03/11 02:22:01;;;;;;;1.25;0.95;;;18.60;60.30;;;;;;4697328;29;87559;-81
2023/03/11 02:24:49;;;;;;;1.33;0.90;;;18.60;60.30;;;;;;4699162;29;87441;-81
2023/03/11 02:27:18;;;;;;;1.60;1.05;;;18.60;60.40;;;;;;4756218;29;87623;-81
2023/03/11 02:29:48;;;;;;;2.63;1.45;;;18.60;60.40;;;;;;4759934;29;88093;-81
2023/03/11 02:32:14;;;;;;;3.03;0.90;;;18.60;60.30;;;;;;4767319;29;87266;-81
2023/03/11 02:34:40;;;;;;;1.52;1.10;;;18.60;60.40;;;;;;4770380;29;88253;-80
2023/03/11 02:37:09;;;;;;;1.48;1.00;;;18.60;60.20;;;;;;4768709;29;88420;-80
2023/03/11 02:39:43;;;;;;;1.10;1.00;;;18.60;60.20;;;;;;4768627;29;88141;-81
2023/03/11 02:42:30;;;;;;;1.15;0.70;;;18.60;60.30;;;;;;4776238;29;87483;-81
2023/03/11 02:45:06;;;;;;;1.23;0.80;;;18.50;60.20;;;;;;4798901;29;87056;-81
2023/03/11 02:47:33;;;;;;;1.10;0.80;;;18.50;60.30;;;;;;4800380;29;88039;-81
2023/03/11 02:49:59;;;;;;;1.98;1.20;;;18.50;60.20;;;;;;4799418;29;89722;-80
2023/03/11 02:52:26;;;;;;;1.50;0.80;;;18.50;60.10;;;;;;4799845;29;87842;-80
2023/03/11 02:54:52;;;;;;;1.40;1.00;;;18.50;60.10;;;;;;4800014;29;87587;-81
2023/03/11 02:57:18;;;;;;;1.55;0.90;;;18.50;60.10;;;;;;4799043;29;87390;-81
2023/03/11 02:59:43;;;;;;;1.30;0.88;;;18.50;60.20;;;;;;4798829;29;90215;-80
2023/03/11 03:02:09;;;;;;;2.20;1.05;;;18.50;60.30;;;;;;4800540;29;88165;-81
2023/03/11 03:04:34;;;;;;;1.17;0.90;;;18.50;60.30;;;;;;4799237;29;87521;-81
2023/03/11 03:07:00;;;;;;;1.23;1.08;;;18.50;60.40;;;;;;4799956;29;87824;-81
2023/03/11 03:09:26;;;;;;;2.83;0.77;;;18.50;60.40;;;;;;4798549;29;88622;-80
2023/03/11 03:11:51;;;;;;;2.20;0.98;;;18.40;60.40;;;;;;4799270;29;87986;-81
2023/03/11 03:14:17;;;;;;;0.90;0.75;;;18.40;60.20;;;;;;4791108;29;87431;-81
2023/03/11 03:16:42;;;;;;;1.15;0.82;;;18.40;60.20;;;;;;4799301;29;87103;-81
2023/03/11 03:19:08;;;;;;;1.02;0.85;;;18.40;60.20;;;;;;4798361;29;88473;-81
2023/03/11 03:21:34;;;;;;;1.00;0.85;;;18.40;60.20;;;;;;4798353;29;87803;-80
2023/03/11 03:23:59;;;;;;;1.10;1.00;;;18.40;60.10;;;;;;4798137;29;87922;-80
2023/03/11 03:26:25;;;;;;;1.50;0.80;;;18.40;60.20;;;;;;4798083;29;87567;-81
2023/03/11 03:28:50;;;;;;;0.85;0.70;;;18.40;60.20;;;;;;4800296;29;88087;-81
2023/03/11 03:31:16;;;;;;;1.45;0.93;;;18.40;60.20;;;;;;4798571;29;88253;-80
2023/03/11 03:33:42;;;;;;;1.10;0.98;;;18.40;60.20;;;;;;4802238;29;87377;-80
2023/03/11 03:36:10;;;;;;;1.27;1.10;;;18.40;60.20;;;;;;4802372;29;87560;-81
2023/03/11 03:38:36;;;;;;;0.90;0.75;;;18.40;60.30;;;;;;4793178;29;89899;-80
2023/03/11 03:41:02;;;;;;;1.30;0.88;;;18.30;60.30;;;;;;4802994;29;88841;-80
2023/03/11 03:43:27;;;;;;;0.85;0.68;;;18.30;60.30;;;;;;4801939;29;87677;-81
2023/03/11 03:46:04;;;;;;;0.80;0.77;;;18.30;60.20;;;;;;4801510;29;87504;-80
2023/03/11 03:48:30;;;;;;;0.82;0.70;;;18.30;60.40;;;;;;4802189;29;89741;-80
2023/03/11 03:51:00;;;;;;;1.67;0.90;;;18.30;60.30;;;;;;4801502;29;88429;-81
2023/03/11 03:53:26;;;;;;;0.60;0.60;;;18.30;60.20;;;;;;4800962;29;87352;-81
2023/03/11 03:55:53;;;;;;;1.85;1.10;;;18.30;60.20;;;;;;4801723;29;87247;-80
2023/03/11 03:58:19;;;;;;;0.77;0.70;;;18.30;60.20;;;;;;4803093;29;89033;-81
2023/03/11 04:00:44;;;;;;;1.42;1.00;;;18.30;60.00;;;;;;4802651;29;87915;-80
2023/03/11 04:03:10;;;;;;;1.83;0.93;;;18.20;60.00;;;;;;4801190;29;87382;-80
2023/03/11 04:05:35;;;;;;;1.98;1.10;;;18.30;60.10;;;;;;4801441;29;87206;-80
2023/03/11 04:08:01;;;;;;;1.10;0.80;;;18.20;59.90;;;;;;4803743;29;87605;-81
2023/03/11 04:10:27;;;;;;;1.10;0.88;;;18.20;59.90;;;;;;4800853;29;87820;-81
2023/03/11 04:12:52;;;;;;;1.10;1.00;;;18.20;60.20;;;;;;4802486;29;88496;-81
2023/03/11 04:15:18;;;;;;;1.73;1.00;;;18.20;60.10;;;;;;4801001;29;87048;-81
2023/03/11 04:17:44;;;;;;;1.55;0.80;;;18.20;60.10;;;;;;4802138;29;87814;-81
2023/03/11 04:20:10;;;;;;;1.88;1.10;;;18.20;60.10;;;;;;4801483;29;88363;-81
2023/03/11 04:22:36;;;;;;;1.00;0.90;;;18.20;59.90;;;;;;4802406;29;87134;-80
2023/03/11 04:25:02;;;;;;;2.30;1.48;;;18.20;59.90;;;;;;4799714;29;87294;-80
2023/03/11 04:27:27;;;;;;;1.23;0.90;;;18.20;59.90;;;;;;4802053;29;87705;-80
2023/03/11 04:29:53;;;;;;;1.40;0.93;;;18.10;59.90;;;;;;4801180;29;87942;-80
2023/03/11 04:32:18;;;;;;;1.20;0.90;;;18.10;59.70;;;;;;4800394;29;87155;-80
2023/03/11 04:34:44;;;;;;;2.00;1.00;;;18.10;59.90;;;;;;4802448;29;87554;-80
2023/03/11 04:37:10;;;;;;;1.55;1.02;;;18.10;59.90;;;;;;4801317;29;89097;-80
2023/03/11 04:39:35;;;;;;;1.50;0.95;;;18.20;60.10;;;;;;4800850;29;89580;-80
2023/03/11 04:42:01;;;;;;;0.75;0.75;;;18.10;59.80;;;;;;4798889;29;88078;-80
2023/03/11 04:44:27;;;;;;;1.20;0.85;;;18.10;60.00;;;;;;4801268;29;87481;-81
2023/03/11 04:46:52;;;;;;;1.40;1.00;;;18.10;59.90;;;;;;4801718;29;88143;-81
2023/03/11 04:49:18;;;;;;;1.25;0.77;;;18.10;59.90;;;;;;4800275;29;87827;-80
2023/03/11 04:51:44;;;;;;;1.40;0.80;;;18.10;59.90;;;;;;4801084;29;87007;-81
2023/03/11 04:54:09;;;;;;;1.52;0.90;;;18.10;60.00;;;;;;4801760;29;86930;-81
2023/03/11 04:56:35;;;;;;;1.35;0.70;;;18.10;59.90;;;;;;4802044;29;88183;-81
2023/03/11 04:59:01;;;;;;;1.65;1.00;;;18.00;59.90;;;;;;4801217;29;88301;-81
2023/03/11 05:01:27;;;;;;;2.15;0.80;;;18.10;59.90;;;;;;4800863;29;88743;-80
2023/03/11 05:03:52;;;;;;;1.35;0.90;;;18.00;59.80;;;;;;4801132;29;88130;-81
2023/03/11 05:06:18;;;;;;;0.70;0.70;;;18.00;59.80;;;;;;4800097;29;88098;-80
2023/03/11 05:08:44;;;;;;;1.08;0.85;;;18.00;59.80;;;;;;4801938;29;87646;-80
2023/03/11 05:11:09;;;;;;;0.93;0.70;;;18.00;59.80;;;;;;4784744;29;86930;-81
2023/03/11 05:13:35;;;;;;;0.90;0.70;;;18.00;59.90;;;;;;4801872;29;87374;-80
2023/03/11 05:16:01;;;;;;;1.42;0.90;;;18.00;59.70;;;;;;4800564;29;88398;-80
2023/03/11 05:18:26;;;;;;;0.95;0.77;;;18.00;59.60;;;;;;4803181;29;87376;-81
2023/03/11 05:20:52;;;;;;;1.73;0.98;;;18.00;57.40;;;;;;4802883;29;93342;-82
2023/03/11 05:23:18;;;;;;;2.25;1.05;;;18.00;56.90;;;;;;4803321;29;88177;-81
2023/03/11 05:25:44;;;;;;;0.90;0.70;;;18.00;56.70;;;;;;4793236;29;92571;-81
2023/03/11 05:28:10;;;;;;;3.83;0.90;;;18.00;57.20;;;;;;4800169;29;89051;-82
2023/03/11 05:30:35;;;;;;;1.27;1.00;;;18.00;56.80;;;;;;4802698;29;87429;-82
2023/03/11 05:33:01;;;;;;;2.55;0.95;;;18.00;56.60;;;;;;4802778;29;86983;-81
2023/03/11 05:35:27;;;;;;;1.42;1.10;;;18.00;56.80;;;;;;4802836;29;89201;-81
2023/03/11 05:37:53;;;;;;;1.08;0.90;;;17.90;56.70;;;;;;4803385;29;88364;-82
2023/03/11 05:40:20;;;;;;;1.35;0.88;;;18.00;56.80;;;;;;4803500;29;87582;-81
2023/03/11 05:42:46;;;;;;;1.92;0.98;;;17.90;56.70;;;;;;4802485;29;86545;-81
2023/03/11 05:45:12;;;;;;;1.63;1.00;;;17.90;56.60;;;;;;4801923;29;87530;-82
2023/03/11 05:47:37;;;;;;;2.85;0.90;;;17.90;56.30;;;;;;4802933;29;87862;-82
2023/03/11 05:50:04;;;;;;;2.47;0.93;;;17.90;56.50;;;;;;4802039;29;87959;-81
2023/03/11 05:52:31;;;;;;;1.60;0.75;;;17.90;56.50;;;;;;4802556;29;87186;-80
2023/03/11 05:54:57;;;;;;;2.72;1.20;;;17.90;56.90;;;;;;4800111;29;88628;-80
2023/03/11 05:57:22;;;;;;;2.70;1.13;;;17.90;57.10;;;;;;4801397;29;87664;-81
2023/03/11 05:59:48;;;;;;;5.22;1.23;;;17.90;56.70;;;;;;4802267;29;87641;-81
2023/03/11 06:02:14;;;;;;;3.50;1.73;;;17.90;57.10;;;;;;4800170;29;87393;-81
2023/03/11 06:04:40;;;;;;;4.28;1.70;;;18.00;57.50;;;;;;4801851;29;89074;-80
2023/03/11 06:07:05;;;;;;;3.65;1.35;;;18.10;57.30;;;;;;4800196;29;87910;-80
2023/03/11 06:09:31;;;;;;;4.75;1.38;;;18.20;57.50;;;;;;4800683;29;87377;-81
2023/03/11 06:11:56;;;;;;;2.08;1.20;;;18.30;57.40;;;;;;4792488;29;87559;-81
2023/03/11 06:14:22;;;;;;;2.65;1.30;;;18.50;57.60;;;;;;4791272;29;89589;-81
2023/03/11 06:16:48;;;;;;;2.70;1.42;;;18.70;57.30;;;;;;4793045;29;88229;-81
2023/03/11 06:19:14;;;;;;;2.63;1.38;;;18.90;57.50;;;;;;4790452;29;87032;-81
2023/03/11 06:21:39;;;;;;;3.72;1.58;;;18.90;57.10;;;;;;4793386;29;87001;-81
2023/03/11 06:24:06;;;;;;;2.42;1.52;;;19.00;57.00;;;;;;4794076;29;88687;-81
2023/03/11 06:26:31;;;;;;;3.80;1.45;;;19.20;56.80;;;;;;4792977;29;87658;-81
2023/03/11 06:28:57;;;;;;;3.28;1.20;;;19.30;56.70;;;;;;4794141;29;87066;-82
2023/03/11 06:31:25;;;;;;;2.53;1.40;;;19.40;56.50;;;;;;4792534;29;87154;-82
2023/03/11 06:33:54;;;;;;;2.67;1.27;;;19.40;56.20;;;;;;4792358;29;87789;-82
2023/03/11 06:36:21;;;;;;;2.95;1.65;;;19.50;56.00;;;;;;4790993;29;88433;-81
2023/03/11 06:38:48;;;;;;;2.58;1.10;;;19.50;56.00;;;;;;4790202;29;88273;-82
2023/03/11 06:41:15;;;;;;;1.67;1.00;;;19.50;56.10;;;;;;4789791;29;88230;-81
2023/03/11 06:43:41;;;;;;;1.92;1.17;;;19.40;56.10;;;;;;4792315;29;87408;-81
2023/03/11 06:46:25;;;;;;;1.95;1.10;;;19.40;56.10;;;;;;4793906;29;88586;-81
2023/03/11 06:48:51;;;;;;;1.83;0.95;;;19.40;56.30;;;;;;4793631;29;87584;-82
2023/03/11 06:51:18;;;;;;;2.92;1.00;;;19.30;56.20;;;;;;4788862;29;89371;-81
2023/03/11 06:53:48;;;;;;;2.17;1.17;;;19.30;56.40;;;;;;4791348;29;89024;-81
2023/03/11 06:56:13;;;;;;;2.80;1.23;;;19.20;56.40;;;;;;4793606;29;88581;-81
2023/03/11 06:58:41;;;;;;;1.67;1.10;;;19.20;56.50;;;;;;4793755;29;87472;-82
2023/03/11 07:01:12;;;;;;;2.83;1.55;;;19.20;56.60;;;;;;4790490;29;88138;-81
2023/03/11 07:03:38;;;;;;;2.75;1.10;;;19.30;56.50;;;;;;4791198;29;88444;-82
2023/03/11 07:06:04;;;;;;;1.95;1.17;;;19.40;56.30;;;;;;4791109;29;88896;-81
2023/03/11 07:08:30;;;;;;;1.58;0.93;;;19.40;56.30;;;;;;4794208;29;87391;-82
2023/03/11 07:11:11;;;;;;;2.80;1.27;;;19.50;56.20;;;;;;4794156;29;87581;-81
2023/03/11 07:13:37;;;;;;;1.95;1.05;;;19.60;56.20;;;;;;4801059;29;88620;-82
2023/03/11 07:16:06;;;;;;;2.78;0.95;;;19.50;55.90;;;;;;4784611;29;91379;-82
2023/03/11 07:18:32;;;;;;;2.15;1.20;;;19.60;56.00;;;;;;4799962;29;87595;-82
2023/03/11 07:21:00;;;;;;;1.98;0.93;;;19.70;56.10;;;;;;4801930;29;87761;-82
2023/03/11 07:23:25;;;;;;;2.95;1.08;;;19.70;55.90;;;;;;4801014;29;88727;-82
2023/03/11 07:25:51;;;;;;;4.47;1.05;;;19.70;55.90;;;;;;4803026;29;88449;-82
2023/03/11 07:28:17;;;;;;;1.83;1.08;;;19.80;55.60;;;;;;4800073;29;88539;-82
2023/03/11 07:30:45;;;;;;;3.90;1.33;;;19.80;55.70;;;;;;4802495;29;86996;-81
2023/03/11 07:33:11;;;;;;;2.50;1.05;;;19.80;55.60;;;;;;4803328;29;87760;-81
2023/03/11 07:35:37;;;;;;;2.42;1.20;;;19.80;55.70;;;;;;4802301;29;87786;-82
2023/03/11 07:38:02;;;;;;;4.60;1.50;;;19.80;55.10;;;;;;4802271;29;87355;-81
2023/03/11 07:40:28;;;;;;;6.65;1.65;;;19.90;55.40;;;;;;4800064;29;87232;-81
2023/03/11 07:42:54;;;;;;;5.60;1.98;;;19.90;55.50;;;;;;4799977;29;88391;-80
2023/03/11 07:45:19;;;;;;;8.95;1.63;;;19.90;55.60;;;;;;4801005;29;87356;-80
2023/03/11 07:47:45;;;;;;;5.80;1.40;;;19.90;55.70;;;;;;4799162;29;87523;-81
2023/03/11 07:50:11;;;;;;;5.53;1.70;;;19.90;55.70;;;;;;4799803;29;87941;-80
2023/03/11 07:52:36;;;;;;;4.40;1.60;;;19.90;55.80;;;;;;4799224;29;88547;-81
2023/03/11 07:55:02;;;;;;;5.40;1.60;;;19.80;56.10;;;;;;4798132;29;88716;-82
2023/03/11 07:57:28;;;;;;;4.30;1.77;;;19.90;56.30;;;;;;4799750;29;87108;-81
2023/03/11 07:59:54;;;;;;;5.13;1.77;;;19.90;56.20;;;;;;4798610;29;87444;-81
2023/03/11 08:02:19;;;;;;;9.60;2.10;;;19.90;56.10;;;;;;4799292;29;87918;-81
2023/03/11 08:04:45;;;;;;;5.93;1.77;;;20.00;56.50;;;;;;4800076;29;88288;-81
2023/03/11 08:07:11;;;;;;;10.75;2.83;;;19.90;56.60;;;;;;4798293;29;87390;-81
2023/03/11 08:09:36;;;;;;;9.65;2.40;;;19.90;55.70;;;;;;4799061;29;86958;-81
2023/03/11 08:12:02;;;;;;;19.85;3.80;;;19.90;55.30;;;;;;4791334;29;87368;-81
2023/03/11 08:14:28;;;;;;;9.52;2.85;;;19.90;54.30;;;;;;4788725;29;87183;-81
2023/03/11 08:16:54;;;;;;;15.45;3.47;;;19.90;55.60;;;;;;4786892;29;88190;-81
2023/03/11 08:19:19;;;;;;;14.93;4.28;;;19.80;55.00;;;;;;4791016;29;87017;-81
2023/03/11 08:21:45;;;;;;;10.30;3.45;;;19.80;56.00;;;;;;4792093;29;88619;-81
2023/03/11 08:24:12;;;;;;;11.10;3.08;;;19.90;56.60;;;;;;4793658;29;87819;-81
2023/03/11 08:26:38;;;;;;;12.32;3.85;;;19.80;56.80;;;;;;4793134;29;87844;-80
2023/03/11 08:29:07;;;;;;;15.32;3.58;;;19.80;58.60;;;;;;4791937;29;87344;-80
2023/03/11 08:31:33;;;;;;;10.93;3.38;;;19.70;57.80;;;;;;4792624;29;87780;-81
2023/03/11 08:34:08;;;;;;;15.68;4.80;;;19.80;57.80;;;;;;4788610;29;86614;-81
2023/03/11 08:36:34;;;;;;;9.55;3.03;;;19.80;58.80;;;;;;4793176;29;87463;-80
2023/03/11 08:38:59;;;;;;;8.20;2.65;;;19.80;57.80;;;;;;4790509;29;87778;-80
2023/03/11 08:41:26;;;;;;;8.13;2.97;;;19.80;58.00;;;;;;4794395;29;88740;-81
2023/03/11 08:43:52;;;;;;;8.73;3.58;;;19.80;58.20;;;;;;4797035;29;88210;-81
2023/03/11 08:46:51;;;;;;;10.18;3.72;;;19.90;58.00;;;;;;4794057;29;87603;-81
2023/03/11 08:49:17;;;;;;;;;;;19.90;53.80;;;;;;4707182;29;87937;-81
2023/03/11 08:51:42;;;;;;;10.68;3.00;;;19.90;57.20;;;;;;4695855;29;91965;-80
2023/03/11 08:54:08;;;;;;;13.52;3.75;;;19.80;57.90;;;;;;4710258;29;87868;-83
2023/03/11 08:56:34;;;;;;;14.18;3.30;;;19.70;58.60;;;;;;4709097;29;87392;-80
2023/03/11 08:58:59;;;;;;;9.55;3.47;;;19.80;58.80;;;;;;4710198;29;88587;-81
2023/03/11 09:01:25;;;;;;;9.50;3.17;;;19.80;58.20;;;;;;4709421;29;90306;-80
2023/03/11 09:03:51;;;;;;;8.70;2.92;;;19.80;57.80;;;;;;4708856;29;88169;-81
2023/03/11 09:06:17;;;;;;;11.18;3.58;;;19.80;58.30;;;;;;4709627;29;88146;-81
2023/03/11 09:08:44;;;;;;;11.00;3.22;;;19.80;58.50;;;;;;4711440;29;87437;-81
2023/03/11 09:11:12;;;;;;;9.27;3.47;;;19.80;58.50;;;;;;4716950;29;93005;-81
2023/03/11 09:13:39;;;;;;;11.82;3.22;;;19.80;58.50;;;;;;4730286;29;92224;-80
2023/03/11 09:16:08;;;;;;;8.90;3.08;;;19.80;58.50;;;;;;4730681;29;87747;-81
2023/03/11 09:18:34;;;;;;;6.85;2.55;;;19.80;58.80;;;;;;4728776;29;87243;-80
2023/03/11 09:20:59;;;;;;;11.70;3.67;;;19.80;59.00;;;;;;4729100;29;87915;-80
2023/03/11 09:23:25;;;;;;;10.07;3.33;;;19.70;58.90;;;;;;4727984;29;88291;-80
2023/03/11 09:25:51;;;;;;;8.65;3.75;;;19.70;59.00;;;;;;4758553;29;87044;-81
2023/03/11 09:28:17;;;;;;;7.60;2.95;;;19.70;59.10;;;;;;4802295;29;87516;-80
2023/03/11 09:30:42;;;;;;;12.23;3.53;;;19.70;59.20;;;;;;4801577;29;90614;-80
2023/03/11 09:33:08;;;;;;;10.73;3.17;;;19.70;59.30;;;;;;4802588;29;88181;-80
2023/03/11 09:35:34;;;;;;;8.45;2.95;;;19.70;59.20;;;;;;4803962;29;87632;-80
2023/03/11 09:37:59;;;;;;;10.80;3.17;;;19.70;59.20;;;;;;4804076;29;87315;-80
2023/03/11 09:40:32;;;;;;;8.32;3.30;;;19.70;59.20;;;;;;4803474;29;88687;-80
2023/03/11 09:42:58;;;;;;;10.18;2.80;;;19.70;59.30;;;;;;4803271;29;88479;-79
2023/03/11 09:45:30;;;;;;;6.82;2.70;;;19.70;59.60;;;;;;4804255;29;86934;-80
2023/03/11 09:48:04;;;;;;;7.22;2.75;;;19.60;59.40;;;;;;4802665;29;87195;-81
2023/03/11 09:50:36;;;;;;;5.55;2.85;;;19.70;59.70;;;;;;4800811;29;88559;-79
2023/03/11 09:53:14;;;;;;;8.57;2.95;;;19.70;57.20;;;;;;4804536;29;88327;-80
2023/03/11 09:55:50;;;;;;;11.25;3.30;;;19.70;56.90;;;;;;4784734;29;88292;-80
2023/03/11 09:58:38;;;;;;;7.15;3.08;;;19.80;58.70;;;;;;4779246;29;89475;-80
2023/03/11 10:01:20;;;;;;;5.82;2.55;;;19.70;58.70;;;;;;4780418;29;89669;-80
2023/03/11 10:03:47;;;;;;;10.02;3.40;;;19.70;58.80;;;;;;4781503;29;87265;-80
2023/03/11 10:06:21;;;;;;;5.90;2.40;;;19.70;59.00;;;;;;4780464;29;87239;-81
2023/03/11 10:09:32;;;;;;;5.88;2.80;;;19.60;58.80;;;;;;4780289;29;87604;-81
2023/03/11 10:12:26;;;;;;;9.75;3.58;;;19.60;58.90;;;;;;4781730;29;88057;-80
2023/03/11 10:15:00;;;;;;;7.78;2.80;;;19.60;58.70;;;;;;4780963;29;87656;-81
2023/03/11 10:17:25;;;;;;;8.45;2.80;;;19.60;58.80;;;;;;4780326;29;87435;-81
2023/03/11 10:19:56;;;;;;;4.82;2.60;;;19.60;59.00;;;;;;4780089;29;88418;-81
2023/03/11 10:22:24;;;;;;;10.02;2.92;;;19.60;59.10;;;;;;4781185;29;88866;-81
2023/03/11 10:25:03;;;;;;;6.93;3.00;;;19.50;59.20;;;;;;4781432;29;88342;-81
2023/03/11 10:27:36;;;;;;;10.65;3.10;;;19.60;58.50;;;;;;4780722;29;87721;-81
2023/03/11 10:30:28;;;;;;;8.90;3.05;;;19.60;58.20;;;;;;4792269;29;87208;-81
2023/03/11 10:33:00;;;;;;;13.52;3.72;;;19.60;57.40;;;;;;4802024;29;87720;-82
2023/03/11 10:35:41;;;;;;;45.80;11.10;;;19.60;57.70;;;;;;4802925;29;88280;-81
2023/03/11 10:38:32;;;;;;;122.22;31.80;;;19.60;57.40;;;;;;4802866;29;87148;-81
2023/03/11 10:41:03;;;;;;;114.63;30.17;;;19.50;57.20;;;;;;4802617;29;91967;-81
2023/03/11 10:43:44;;;;;;;96.80;25.70;;;19.40;57.10;;;;;;4795448;29;89320;-81
2023/03/11 10:46:19;;;;;;;84.65;21.70;;;19.40;57.00;;;;;;4800726;29;88345;-81
2023/03/11 10:48:44;;;;;;;87.65;21.25;;;19.40;56.70;;;;;;4803539;29;88366;-82
2023/03/11 10:51:13;;;;;;;94.10;21.50;;;19.40;55.90;;;;;;4801710;29;87495;-81
2023/03/11 10:53:56;;;;;;;85.53;20.95;;;19.40;56.30;;;;;;4799568;29;88925;-81
2023/03/11 10:56:32;;;;;;;86.63;20.67;;;19.40;57.60;;;;;;4801360;29;87760;-81
2023/03/11 10:58:59;;;;;;;79.28;20.98;;;19.40;59.30;;;;;;4800967;29;87750;-81
2023/03/11 11:01:25;;;;;;;71.95;19.77;;;19.40;59.90;;;;;;4801210;29;87571;-81
2023/03/11 11:03:54;;;;;;;80.00;21.33;;;19.50;59.90;;;;;;4801392;29;87806;-81
2023/03/11 11:06:34;;;;;;;75.45;20.75;;;19.70;60.10;;;;;;4800887;29;88851;-81
2023/03/11 11:09:20;;;;;;;72.40;19.17;;;19.80;60.30;;;;;;4801003;29;87787;-81
2023/03/11 11:12:04;;;;;;;68.50;19.00;;;19.90;60.30;;;;;;4793641;29;87420;-81
2023/03/11 11:14:42;;;;;;;62.78;17.75;;;20.10;60.20;;;;;;4789955;29;88586;-81
2023/03/11 11:17:32;;;;;;;68.82;17.85;;;20.20;59.90;;;;;;4790566;29;88790;-80
2023/03/11 11:20:00;;;;;;;61.42;16.92;;;20.20;59.70;;;;;;4792679;29;88616;-82
2023/03/11 11:22:27;;;;;;;66.60;19.42;;;20.30;59.40;;;;;;4793469;29;87358;-82
2023/03/11 11:24:55;;;;;;;57.70;16.35;;;20.30;59.60;;;;;;4788208;29;88154;-83
2023/03/11 11:27:24;;;;;;;53.35;14.80;;;20.20;58.40;;;;;;4793567;29;89120;-83
2023/03/11 11:30:08;;;;;;;59.75;16.92;;;20.20;58.00;;;;;;4792509;29;87156;-82
2023/03/11 11:32:35;;;;;;;51.35;15.23;;;20.20;59.40;;;;;;4794654;29;87545;-82
2023/03/11 11:35:04;;;;;;;53.13;15.65;;;20.30;58.70;;;;;;4793049;29;88581;-81
2023/03/11 11:37:42;;;;;;;49.20;14.82;;;20.30;58.50;;;;;;4792527;29;88922;-81
2023/03/11 11:40:14;;;;;;;54.13;16.02;;;20.30;59.30;;;;;;4774617;29;88392;-81
2023/03/11 11:43:03;;;;;;;50.42;15.27;;;20.30;59.40;;;;;;4777071;29;89162;-82
2023/03/11 11:45:52;;;;;;;50.92;15.20;;;20.20;59.50;;;;;;4700165;29;88035;-81
2023/03/11 11:48:44;;;;;;;51.20;15.05;;;20.20;59.60;;;;;;4701778;29;88357;-81
2023/03/11 11:51:18;;;;;;;39.60;13.43;;;20.10;59.80;;;;;;4698170;29;87244;-81
2023/03/11 11:54:14;;;;;;;48.53;14.32;;;20.10;59.90;;;;;;4703389;29;88093;-82
2023/03/11 11:56:40;;;;;;;41.05;14.00;;;20.10;59.90;;;;;;4699944;29;87818;-81
2023/03/11 11:59:17;;;;;;;48.78;14.82;;;20.10;60.10;;;;;;4699416;29;88381;-81
2023/03/11 12:01:56;;;;;;;45.90;14.90;;;20.00;60.20;;;;;;4700217;29;87982;-81
2023/03/11 12:04:35;;;;;;;41.22;13.40;;;20.00;60.10;;;;;;4700141;29;87532;-82
2023/03/11 12:07:25;;;;;;;43.95;14.23;;;20.00;60.00;;;;;;4699273;29;89227;-82
2023/03/11 12:10:32;;;;;;;42.97;13.18;;;20.10;59.90;;;;;;4704560;29;90003;-82
2023/03/11 12:13:12;;;;;;;43.35;12.40;;;20.20;59.30;;;;;;4678296;30;87113;-82
2023/03/11 12:15:40;;;;;;;45.85;13.75;;;20.20;59.30;;;;;;4678015;30;87647;-81
2023/03/11 12:18:19;;;;;;;39.58;12.60;;;20.20;59.20;;;;;;4677192;30;88690;-81
2023/03/11 12:20:50;;;;;;;39.75;11.95;;;20.20;59.30;;;;;;4675721;30;88506;-81
2023/03/11 12:23:27;;;;;;;43.70;13.25;;;20.20;58.90;;;;;;4731203;29;87768;-81
2023/03/11 12:26:22;;;;;;;43.90;12.48;;;20.30;58.90;;;;;;4748967;29;86890;-81
2023/03/11 12:28:51;;;;;;;44.58;12.35;;;20.30;58.70;;;;;;4748142;29;92321;-81
2023/03/11 12:31:18;;;;;;;37.58;11.80;;;20.30;58.90;;;;;;4747013;29;88318;-82
2023/03/11 12:34:01;;;;;;;41.60;12.70;;;20.30;59.10;;;;;;4747134;29;88276;-81
2023/03/11 12:36:35;;;;;;;40.20;12.75;;;20.20;59.30;;;;;;4746966;29;87569;-81
2023/03/11 12:39:04;;;;;;;38.95;12.05;;;20.10;58.90;;;;;;4747448;29;87981;-81
2023/03/11 12:41:41;;;;;;;40.08;12.25;;;20.10;59.20;;;;;;4747953;29;88440;-82
2023/03/11 12:44:19;;;;;;;43.00;12.70;;;20.10;59.20;;;;;;4746906;29;87768;-82
2023/03/11 12:46:56;;;;;;;37.53;11.32;;;20.00;59.40;;;;;;4747783;29;91472;-82
2023/03/11 12:49:29;;;;;;;30.10;10.55;;;20.10;59.30;;;;;;4754882;29;88546;-81
2023/03/11 12:52:04;;;;;;;36.03;12.50;;;20.00;59.00;;;;;;4785880;29;88417;-81
2023/03/11 12:54:31;;;;;;;31.40;11.13;;;20.10;59.10;;;;;;4785949;29;87255;-81